sensor_id;sensor_type;location;lat;lon;timestamp;P1;durP1;ratioP1;P2;durP2;ratioP2
22236;SDS011;11287;48.122;11.536;2023-07-13T00:00:09;7.90;;;4.57;;
22236;SDS011;11287;48.122;11.536;2023-07-13T00:02:35;8.55;;;4.68;;
22236;SDS011;11287;48.122;11.536;2023-07-13T00:05:01;5.05;;;4.05;;
22236;SDS011;11287;48.122;11.536;2023-07-13T00:07:26;7.32;;;4.72;;
22236;SDS011;11287;48.122;11.536;2023-07-13T00:09:52;5.18;;;4.30;;
22236;SDS011;11287;48.122;11.536;2023-07-13T00:12:25;7.65;;;4.63;;
22236;SDS011;11287;48.122;11.536;2023-07-13T00:14:52;5.20;;;4.05;;
22236;SDS011;11287;48.122;11.536;2023-07-13T00:17:18;5.78;;;4.82;;
22236;SDS011;11287;48.122;11.536;2023-07-13T00:19:43;5.05;;;4.43;;
22236;SDS011;11287;48.122;11.536;2023-07-13T00:22:08;5.45;;;4.38;;
22236;SDS011;11287;48.122;11.536;2023-07-13T00:24:34;7.10;;;4.20;;
22236;SDS011;11287;48.122;11.536;2023-07-13T00:27:00;4.57;;;4.10;;
22236;SDS011;11287;48.122;11.536;2023-07-13T00:29:26;6.85;;;4.63;;
22236;SDS011;11287;48.122;11.536;2023-07-13T00:31:51;5.55;;;4.30;;
22236;SDS011;11287;48.122;11.536;2023-07-13T00:34:17;4.90;;;3.95;;
22236;SDS011;11287;48.122;11.536;2023-07-13T00:36:42;4.60;;;3.90;;
22236;SDS011;11287;48.122;11.536;2023-07-13T00:39:07;5.85;;;4.40;;
22236;SDS011;11287;48.122;11.536;2023-07-13T00:41:33;4.93;;;3.78;;
22236;SDS011;11287;48.122;11.536;2023-07-13T00:43:58;5.60;;;3.72;;
22236;SDS011;11287;48.122;11.536;2023-07-13T00:46:28;4.57;;;3.42;;
22236;SDS011;11287;48.122;11.536;2023-07-13T00:48:56;6.82;;;3.83;;
22236;SDS011;11287;48.122;11.536;2023-07-13T00:51:25;3.85;;;3.45;;
22236;SDS011;11287;48.122;11.536;2023-07-13T00:53:54;5.20;;;3.13;;
22236;SDS011;11287;48.122;11.536;2023-07-13T00:56:22;6.10;;;3.17;;
22236;SDS011;11287;48.122;11.536;2023-07-13T00:58:47;3.45;;;2.60;;
22236;SDS011;11287;48.122;11.536;2023-07-13T01:01:12;3.38;;;2.70;;
22236;SDS011;11287;48.122;11.536;2023-07-13T01:03:38;4.47;;;3.35;;
22236;SDS011;11287;48.122;11.536;2023-07-13T01:06:05;3.17;;;2.88;;
22236;SDS011;11287;48.122;11.536;2023-07-13T01:08:31;3.65;;;3.28;;
22236;SDS011;11287;48.122;11.536;2023-07-13T01:10:57;4.28;;;3.00;;
22236;SDS011;11287;48.122;11.536;2023-07-13T01:13:23;4.32;;;2.88;;
22236;SDS011;11287;48.122;11.536;2023-07-13T01:15:49;4.72;;;3.55;;
22236;SDS011;11287;48.122;11.536;2023-07-13T01:18:17;3.40;;;3.10;;
22236;SDS011;11287;48.122;11.536;2023-07-13T01:20:50;3.00;;;2.70;;
22236;SDS011;11287;48.122;11.536;2023-07-13T01:23:23;3.63;;;2.97;;
22236;SDS011;11287;48.122;11.536;2023-07-13T01:25:50;3.78;;;3.33;;
22236;SDS011;11287;48.122;11.536;2023-07-13T01:28:15;4.25;;;3.00;;
22236;SDS011;11287;48.122;11.536;2023-07-13T01:30:41;5.53;;;3.20;;
22236;SDS011;11287;48.122;11.536;2023-07-13T01:33:10;5.93;;;3.40;;
22236;SDS011;11287;48.122;11.536;2023-07-13T01:35:37;3.55;;;3.22;;
22236;SDS011;11287;48.122;11.536;2023-07-13T01:38:03;6.43;;;3.33;;
22236;SDS011;11287;48.122;11.536;2023-07-13T01:40:29;4.57;;;3.40;;
22236;SDS011;11287;48.122;11.536;2023-07-13T01:42:55;5.22;;;3.50;;
22236;SDS011;11287;48.122;11.536;2023-07-13T01:45:20;7.70;;;3.40;;
22236;SDS011;11287;48.122;11.536;2023-07-13T01:47:45;5.20;;;3.60;;
22236;SDS011;11287;48.122;11.536;2023-07-13T01:50:11;5.03;;;3.63;;
22236;SDS011;11287;48.122;11.536;2023-07-13T01:52:36;3.83;;;3.45;;
22236;SDS011;11287;48.122;11.536;2023-07-13T01:55:02;6.05;;;3.83;;
22236;SDS011;11287;48.122;11.536;2023-07-13T01:57:27;6.45;;;4.28;;
22236;SDS011;11287;48.122;11.536;2023-07-13T01:59:53;7.57;;;4.60;;
22236;SDS011;11287;48.122;11.536;2023-07-13T02:02:18;5.68;;;3.95;;
22236;SDS011;11287;48.122;11.536;2023-07-13T02:04:44;5.63;;;4.15;;
22236;SDS011;11287;48.122;11.536;2023-07-13T02:07:09;5.05;;;3.67;;
22236;SDS011;11287;48.122;11.536;2023-07-13T02:09:34;6.40;;;4.45;;
22236;SDS011;11287;48.122;11.536;2023-07-13T02:12:00;5.70;;;4.18;;
22236;SDS011;11287;48.122;11.536;2023-07-13T02:14:25;5.68;;;4.07;;
22236;SDS011;11287;48.122;11.536;2023-07-13T02:16:50;5.80;;;4.53;;
22236;SDS011;11287;48.122;11.536;2023-07-13T02:19:16;5.60;;;4.15;;
22236;SDS011;11287;48.122;11.536;2023-07-13T02:21:41;6.53;;;5.28;;
22236;SDS011;11287;48.122;11.536;2023-07-13T02:24:06;7.47;;;4.78;;
22236;SDS011;11287;48.122;11.536;2023-07-13T02:26:32;6.95;;;4.80;;
22236;SDS011;11287;48.122;11.536;2023-07-13T02:28:57;5.32;;;4.70;;
22236;SDS011;11287;48.122;11.536;2023-07-13T02:31:22;8.75;;;4.78;;
22236;SDS011;11287;48.122;11.536;2023-07-13T02:33:48;6.30;;;4.97;;
22236;SDS011;11287;48.122;11.536;2023-07-13T02:36:13;5.50;;;4.70;;
22236;SDS011;11287;48.122;11.536;2023-07-13T02:38:41;8.13;;;4.93;;
22236;SDS011;11287;48.122;11.536;2023-07-13T02:41:07;6.63;;;4.55;;
22236;SDS011;11287;48.122;11.536;2023-07-13T02:43:34;7.93;;;5.20;;
22236;SDS011;11287;48.122;11.536;2023-07-13T02:45:59;11.70;;;5.50;;
22236;SDS011;11287;48.122;11.536;2023-07-13T02:48:31;6.15;;;5.00;;
22236;SDS011;11287;48.122;11.536;2023-07-13T02:50:57;7.10;;;5.40;;
22236;SDS011;11287;48.122;11.536;2023-07-13T02:53:22;14.68;;;6.40;;
22236;SDS011;11287;48.122;11.536;2023-07-13T02:55:47;9.35;;;5.80;;
22236;SDS011;11287;48.122;11.536;2023-07-13T02:58:13;10.95;;;6.45;;
22236;SDS011;11287;48.122;11.536;2023-07-13T03:00:41;10.70;;;6.05;;
22236;SDS011;11287;48.122;11.536;2023-07-13T03:03:07;15.70;;;7.13;;
22236;SDS011;11287;48.122;11.536;2023-07-13T03:05:33;10.75;;;7.30;;
22236;SDS011;11287;48.122;11.536;2023-07-13T03:07:58;10.23;;;6.07;;
22236;SDS011;11287;48.122;11.536;2023-07-13T03:10:23;10.57;;;6.50;;
22236;SDS011;11287;48.122;11.536;2023-07-13T03:12:48;7.65;;;5.32;;
22236;SDS011;11287;48.122;11.536;2023-07-13T03:15:14;15.40;;;6.53;;
22236;SDS011;11287;48.122;11.536;2023-07-13T03:17:39;11.20;;;5.38;;
22236;SDS011;11287;48.122;11.536;2023-07-13T03:20:05;10.18;;;5.07;;
22236;SDS011;11287;48.122;11.536;2023-07-13T03:22:32;9.18;;;5.35;;
22236;SDS011;11287;48.122;11.536;2023-07-13T03:24:57;8.95;;;5.28;;
22236;SDS011;11287;48.122;11.536;2023-07-13T03:27:23;11.70;;;5.05;;
22236;SDS011;11287;48.122;11.536;2023-07-13T03:29:48;7.85;;;5.53;;
22236;SDS011;11287;48.122;11.536;2023-07-13T03:32:13;7.45;;;5.20;;
22236;SDS011;11287;48.122;11.536;2023-07-13T03:34:39;5.65;;;4.70;;
22236;SDS011;11287;48.122;11.536;2023-07-13T03:37:04;10.68;;;5.13;;
22236;SDS011;11287;48.122;11.536;2023-07-13T03:39:30;9.00;;;5.20;;
22236;SDS011;11287;48.122;11.536;2023-07-13T03:41:55;5.85;;;5.07;;
22236;SDS011;11287;48.122;11.536;2023-07-13T03:44:21;8.98;;;6.35;;
22236;SDS011;11287;48.122;11.536;2023-07-13T03:46:46;14.10;;;5.55;;
22236;SDS011;11287;48.122;11.536;2023-07-13T03:49:12;7.93;;;5.72;;
22236;SDS011;11287;48.122;11.536;2023-07-13T03:51:37;10.10;;;6.10;;
22236;SDS011;11287;48.122;11.536;2023-07-13T03:54:03;10.48;;;5.97;;
22236;SDS011;11287;48.122;11.536;2023-07-13T03:56:28;10.15;;;6.25;;
22236;SDS011;11287;48.122;11.536;2023-07-13T03:58:55;13.55;;;6.43;;
22236;SDS011;11287;48.122;11.536;2023-07-13T04:01:21;8.48;;;6.13;;
22236;SDS011;11287;48.122;11.536;2023-07-13T04:03:47;9.23;;;6.60;;
22236;SDS011;11287;48.122;11.536;2023-07-13T04:06:25;9.40;;;6.45;;
22236;SDS011;11287;48.122;11.536;2023-07-13T04:09:01;9.63;;;6.75;;
22236;SDS011;11287;48.122;11.536;2023-07-13T04:11:31;8.85;;;6.00;;
22236;SDS011;11287;48.122;11.536;2023-07-13T04:13:57;8.20;;;6.15;;
22236;SDS011;11287;48.122;11.536;2023-07-13T04:16:22;7.20;;;5.85;;
22236;SDS011;11287;48.122;11.536;2023-07-13T04:18:48;9.07;;;5.85;;
22236;SDS011;11287;48.122;11.536;2023-07-13T04:21:13;7.32;;;5.25;;
22236;SDS011;11287;48.122;11.536;2023-07-13T04:23:39;8.63;;;5.68;;
22236;SDS011;11287;48.122;11.536;2023-07-13T04:26:05;10.82;;;5.88;;
22236;SDS011;11287;48.122;11.536;2023-07-13T04:28:31;7.80;;;5.47;;
22236;SDS011;11287;48.122;11.536;2023-07-13T04:30:56;9.95;;;6.15;;
22236;SDS011;11287;48.122;11.536;2023-07-13T04:33:22;11.85;;;5.57;;
22236;SDS011;11287;48.122;11.536;2023-07-13T04:35:51;10.00;;;5.85;;
22236;SDS011;11287;48.122;11.536;2023-07-13T04:38:25;8.60;;;5.63;;
22236;SDS011;11287;48.122;11.536;2023-07-13T04:40:55;9.68;;;6.38;;
22236;SDS011;11287;48.122;11.536;2023-07-13T04:43:21;7.03;;;4.93;;
22236;SDS011;11287;48.122;11.536;2023-07-13T04:45:47;7.65;;;5.90;;
22236;SDS011;11287;48.122;11.536;2023-07-13T04:48:12;7.45;;;5.72;;
22236;SDS011;11287;48.122;11.536;2023-07-13T04:50:38;7.45;;;5.97;;
22236;SDS011;11287;48.122;11.536;2023-07-13T04:53:03;11.75;;;5.65;;
22236;SDS011;11287;48.122;11.536;2023-07-13T04:55:29;6.97;;;5.13;;
22236;SDS011;11287;48.122;11.536;2023-07-13T04:57:55;7.30;;;6.05;;
22236;SDS011;11287;48.122;11.536;2023-07-13T05:00:21;7.90;;;6.13;;
22236;SDS011;11287;48.122;11.536;2023-07-13T05:02:46;7.95;;;5.88;;
22236;SDS011;11287;48.122;11.536;2023-07-13T05:05:11;6.20;;;5.22;;
22236;SDS011;11287;48.122;11.536;2023-07-13T05:07:37;8.50;;;6.18;;
22236;SDS011;11287;48.122;11.536;2023-07-13T05:10:02;6.97;;;5.68;;
22236;SDS011;11287;48.122;11.536;2023-07-13T05:12:28;10.02;;;5.70;;
22236;SDS011;11287;48.122;11.536;2023-07-13T05:14:54;9.65;;;5.82;;
22236;SDS011;11287;48.122;11.536;2023-07-13T05:17:19;10.38;;;5.63;;
22236;SDS011;11287;48.122;11.536;2023-07-13T05:19:45;9.18;;;5.57;;
22236;SDS011;11287;48.122;11.536;2023-07-13T05:22:10;9.35;;;5.30;;
22236;SDS011;11287;48.122;11.536;2023-07-13T05:24:35;7.70;;;5.35;;
22236;SDS011;11287;48.122;11.536;2023-07-13T05:27:01;6.95;;;5.38;;
22236;SDS011;11287;48.122;11.536;2023-07-13T05:29:26;10.43;;;5.78;;
22236;SDS011;11287;48.122;11.536;2023-07-13T05:31:51;8.25;;;5.38;;
22236;SDS011;11287;48.122;11.536;2023-07-13T05:34:17;8.18;;;5.15;;
22236;SDS011;11287;48.122;11.536;2023-07-13T05:36:42;5.57;;;4.57;;
22236;SDS011;11287;48.122;11.536;2023-07-13T05:39:08;5.88;;;5.15;;
22236;SDS011;11287;48.122;11.536;2023-07-13T05:41:33;7.75;;;5.57;;
22236;SDS011;11287;48.122;11.536;2023-07-13T05:43:59;7.10;;;5.80;;
22236;SDS011;11287;48.122;11.536;2023-07-13T05:46:24;8.93;;;5.78;;
22236;SDS011;11287;48.122;11.536;2023-07-13T05:48:50;7.03;;;5.65;;
22236;SDS011;11287;48.122;11.536;2023-07-13T05:51:15;8.32;;;5.72;;
22236;SDS011;11287;48.122;11.536;2023-07-13T05:53:40;9.50;;;5.78;;
22236;SDS011;11287;48.122;11.536;2023-07-13T05:56:05;7.35;;;5.43;;
22236;SDS011;11287;48.122;11.536;2023-07-13T05:58:31;7.93;;;5.75;;
22236;SDS011;11287;48.122;11.536;2023-07-13T06:01:00;8.15;;;5.82;;
22236;SDS011;11287;48.122;11.536;2023-07-13T06:03:28;7.22;;;5.43;;
22236;SDS011;11287;48.122;11.536;2023-07-13T06:05:53;11.02;;;5.35;;
22236;SDS011;11287;48.122;11.536;2023-07-13T06:08:18;8.93;;;5.47;;
22236;SDS011;11287;48.122;11.536;2023-07-13T06:10:44;7.38;;;4.90;;
22236;SDS011;11287;48.122;11.536;2023-07-13T06:13:09;9.45;;;5.07;;
22236;SDS011;11287;48.122;11.536;2023-07-13T06:15:34;7.20;;;4.85;;
22236;SDS011;11287;48.122;11.536;2023-07-13T06:17:59;5.55;;;4.50;;
22236;SDS011;11287;48.122;11.536;2023-07-13T06:20:25;7.70;;;4.88;;
22236;SDS011;11287;48.122;11.536;2023-07-13T06:22:50;8.23;;;4.25;;
22236;SDS011;11287;48.122;11.536;2023-07-13T06:25:16;5.10;;;3.70;;
22236;SDS011;11287;48.122;11.536;2023-07-13T06:27:42;5.57;;;3.80;;
22236;SDS011;11287;48.122;11.536;2023-07-13T06:30:07;5.38;;;3.45;;
22236;SDS011;11287;48.122;11.536;2023-07-13T06:32:33;5.80;;;3.92;;
22236;SDS011;11287;48.122;11.536;2023-07-13T06:34:59;4.55;;;3.17;;
22236;SDS011;11287;48.122;11.536;2023-07-13T06:37:24;3.88;;;3.40;;
22236;SDS011;11287;48.122;11.536;2023-07-13T06:39:49;6.30;;;3.20;;
22236;SDS011;11287;48.122;11.536;2023-07-13T06:42:15;7.57;;;3.58;;
22236;SDS011;11287;48.122;11.536;2023-07-13T06:44:41;7.47;;;3.13;;
22236;SDS011;11287;48.122;11.536;2023-07-13T06:47:06;4.97;;;3.08;;
22236;SDS011;11287;48.122;11.536;2023-07-13T06:49:32;4.68;;;3.33;;
22236;SDS011;11287;48.122;11.536;2023-07-13T06:51:57;6.50;;;3.13;;
22236;SDS011;11287;48.122;11.536;2023-07-13T06:54:22;7.40;;;2.97;;
22236;SDS011;11287;48.122;11.536;2023-07-13T06:56:48;6.35;;;3.22;;
22236;SDS011;11287;48.122;11.536;2023-07-13T06:59:13;6.07;;;3.50;;
22236;SDS011;11287;48.122;11.536;2023-07-13T07:01:38;3.65;;;2.90;;
22236;SDS011;11287;48.122;11.536;2023-07-13T07:04:04;8.98;;;6.55;;
22236;SDS011;11287;48.122;11.536;2023-07-13T07:06:29;7.85;;;3.45;;
22236;SDS011;11287;48.122;11.536;2023-07-13T07:08:55;4.47;;;3.05;;
22236;SDS011;11287;48.122;11.536;2023-07-13T07:11:22;4.35;;;3.03;;
22236;SDS011;11287;48.122;11.536;2023-07-13T07:13:49;6.82;;;3.00;;
22236;SDS011;11287;48.122;11.536;2023-07-13T07:16:14;6.72;;;2.88;;
22236;SDS011;11287;48.122;11.536;2023-07-13T07:18:40;5.03;;;3.05;;
22236;SDS011;11287;48.122;11.536;2023-07-13T07:21:06;7.35;;;3.22;;
22236;SDS011;11287;48.122;11.536;2023-07-13T07:23:31;6.13;;;3.78;;
22236;SDS011;11287;48.122;11.536;2023-07-13T07:25:57;3.90;;;2.70;;
22236;SDS011;11287;48.122;11.536;2023-07-13T07:28:22;5.35;;;2.75;;
22236;SDS011;11287;48.122;11.536;2023-07-13T07:30:48;3.50;;;2.80;;
22236;SDS011;11287;48.122;11.536;2023-07-13T07:33:14;6.97;;;2.80;;
22236;SDS011;11287;48.122;11.536;2023-07-13T07:35:41;9.45;;;2.92;;
22236;SDS011;11287;48.122;11.536;2023-07-13T07:38:07;4.95;;;2.60;;
22236;SDS011;11287;48.122;11.536;2023-07-13T07:40:36;4.72;;;3.00;;
22236;SDS011;11287;48.122;11.536;2023-07-13T07:43:05;4.95;;;2.67;;
22236;SDS011;11287;48.122;11.536;2023-07-13T07:45:31;10.85;;;3.53;;
22236;SDS011;11287;48.122;11.536;2023-07-13T07:47:56;8.50;;;2.95;;
22236;SDS011;11287;48.122;11.536;2023-07-13T07:50:24;5.05;;;2.85;;
22236;SDS011;11287;48.122;11.536;2023-07-13T07:52:49;3.33;;;2.85;;
22236;SDS011;11287;48.122;11.536;2023-07-13T07:55:15;8.35;;;3.13;;
22236;SDS011;11287;48.122;11.536;2023-07-13T07:57:40;3.50;;;2.88;;
22236;SDS011;11287;48.122;11.536;2023-07-13T08:00:06;7.93;;;2.90;;
22236;SDS011;11287;48.122;11.536;2023-07-13T08:02:32;6.50;;;3.05;;
22236;SDS011;11287;48.122;11.536;2023-07-13T08:04:57;9.40;;;3.45;;
22236;SDS011;11287;48.122;11.536;2023-07-13T08:07:22;10.57;;;3.25;;
22236;SDS011;11287;48.122;11.536;2023-07-13T08:09:48;3.05;;;2.50;;
22236;SDS011;11287;48.122;11.536;2023-07-13T08:12:17;5.35;;;3.03;;
22236;SDS011;11287;48.122;11.536;2023-07-13T08:14:42;4.20;;;2.67;;
22236;SDS011;11287;48.122;11.536;2023-07-13T08:17:07;6.05;;;2.65;;
22236;SDS011;11287;48.122;11.536;2023-07-13T08:19:33;5.60;;;2.63;;
22236;SDS011;11287;48.122;11.536;2023-07-13T08:21:58;3.30;;;2.70;;
22236;SDS011;11287;48.122;11.536;2023-07-13T08:24:23;5.22;;;2.78;;
22236;SDS011;11287;48.122;11.536;2023-07-13T08:26:50;4.90;;;3.00;;
22236;SDS011;11287;48.122;11.536;2023-07-13T08:29:15;6.90;;;2.58;;
22236;SDS011;11287;48.122;11.536;2023-07-13T08:31:41;5.65;;;2.75;;
22236;SDS011;11287;48.122;11.536;2023-07-13T08:34:06;3.38;;;2.65;;
22236;SDS011;11287;48.122;11.536;2023-07-13T08:36:31;5.43;;;2.90;;
22236;SDS011;11287;48.122;11.536;2023-07-13T08:38:57;5.18;;;2.80;;
22236;SDS011;11287;48.122;11.536;2023-07-13T08:41:22;5.32;;;2.83;;
22236;SDS011;11287;48.122;11.536;2023-07-13T08:43:49;4.68;;;3.03;;
22236;SDS011;11287;48.122;11.536;2023-07-13T08:46:35;7.38;;;3.40;;
22236;SDS011;11287;48.122;11.536;2023-07-13T08:49:03;5.90;;;3.25;;
22236;SDS011;11287;48.122;11.536;2023-07-13T08:51:35;7.20;;;3.05;;
22236;SDS011;11287;48.122;11.536;2023-07-13T08:54:05;5.03;;;3.15;;
22236;SDS011;11287;48.122;11.536;2023-07-13T08:56:36;5.80;;;2.90;;
22236;SDS011;11287;48.122;11.536;2023-07-13T08:59:14;6.78;;;3.08;;
22236;SDS011;11287;48.122;11.536;2023-07-13T09:04:53;6.03;;;2.30;;
22236;SDS011;11287;48.122;11.536;2023-07-13T09:07:25;6.00;;;2.60;;
22236;SDS011;11287;48.122;11.536;2023-07-13T09:12:45;8.48;;;2.47;;
22236;SDS011;11287;48.122;11.536;2023-07-13T09:17:56;4.90;;;2.65;;
22236;SDS011;11287;48.122;11.536;2023-07-13T09:20:27;10.05;;;2.42;;
22236;SDS011;11287;48.122;11.536;2023-07-13T09:22:56;5.20;;;2.15;;
22236;SDS011;11287;48.122;11.536;2023-07-13T09:25:27;4.32;;;2.30;;
22236;SDS011;11287;48.122;11.536;2023-07-13T09:27:56;8.70;;;2.00;;
22236;SDS011;11287;48.122;11.536;2023-07-13T09:30:41;5.40;;;2.20;;
22236;SDS011;11287;48.122;11.536;2023-07-13T09:33:11;4.72;;;1.90;;
22236;SDS011;11287;48.122;11.536;2023-07-13T09:35:36;3.40;;;1.70;;
22236;SDS011;11287;48.122;11.536;2023-07-13T09:38:12;5.03;;;2.00;;
22236;SDS011;11287;48.122;11.536;2023-07-13T09:40:40;5.25;;;2.13;;
22236;SDS011;11287;48.122;11.536;2023-07-13T09:43:10;3.20;;;1.80;;
22236;SDS011;11287;48.122;11.536;2023-07-13T09:45:38;2.65;;;1.80;;
22236;SDS011;11287;48.122;11.536;2023-07-13T09:48:11;3.35;;;2.03;;
22236;SDS011;11287;48.122;11.536;2023-07-13T09:50:38;5.50;;;2.08;;
22236;SDS011;11287;48.122;11.536;2023-07-13T09:53:04;4.53;;;1.85;;
22236;SDS011;11287;48.122;11.536;2023-07-13T09:55:37;2.88;;;2.17;;
22236;SDS011;11287;48.122;11.536;2023-07-13T09:58:25;8.02;;;2.28;;
22236;SDS011;11287;48.122;11.536;2023-07-13T10:00:56;6.57;;;2.28;;
22236;SDS011;11287;48.122;11.536;2023-07-13T10:03:27;3.40;;;2.00;;
22236;SDS011;11287;48.122;11.536;2023-07-13T10:05:55;3.25;;;1.90;;
22236;SDS011;11287;48.122;11.536;2023-07-13T10:08:29;3.78;;;1.80;;
22236;SDS011;11287;48.122;11.536;2023-07-13T10:11:29;5.28;;;2.20;;
22236;SDS011;11287;48.122;11.536;2023-07-13T10:13:55;6.88;;;2.17;;
22236;SDS011;11287;48.122;11.536;2023-07-13T10:16:23;4.60;;;2.00;;
22236;SDS011;11287;48.122;11.536;2023-07-13T10:18:51;3.70;;;1.65;;
22236;SDS011;11287;48.122;11.536;2023-07-13T10:21:21;4.53;;;1.65;;
22236;SDS011;11287;48.122;11.536;2023-07-13T10:23:54;4.75;;;1.38;;
22236;SDS011;11287;48.122;11.536;2023-07-13T10:26:27;2.85;;;1.30;;
22236;SDS011;11287;48.122;11.536;2023-07-13T10:28:56;3.47;;;1.10;;
22236;SDS011;11287;48.122;11.536;2023-07-13T10:31:22;3.58;;;1.40;;
22236;SDS011;11287;48.122;11.536;2023-07-13T10:33:48;5.63;;;1.27;;
22236;SDS011;11287;48.122;11.536;2023-07-13T10:36:17;4.13;;;1.25;;
22236;SDS011;11287;48.122;11.536;2023-07-13T10:38:45;1.63;;;1.05;;
22236;SDS011;11287;48.122;11.536;2023-07-13T10:41:14;2.53;;;1.17;;
22236;SDS011;11287;48.122;11.536;2023-07-13T10:43:45;3.45;;;1.20;;
22236;SDS011;11287;48.122;11.536;2023-07-13T10:46:15;2.03;;;1.10;;
22236;SDS011;11287;48.122;11.536;2023-07-13T10:48:42;1.90;;;1.10;;
22236;SDS011;11287;48.122;11.536;2023-07-13T10:51:08;3.00;;;1.30;;
22236;SDS011;11287;48.122;11.536;2023-07-13T10:53:36;4.40;;;1.52;;
22236;SDS011;11287;48.122;11.536;2023-07-13T10:56:03;3.95;;;1.30;;
22236;SDS011;11287;48.122;11.536;2023-07-13T10:58:37;2.80;;;1.35;;
22236;SDS011;11287;48.122;11.536;2023-07-13T11:01:06;2.38;;;1.42;;
22236;SDS011;11287;48.122;11.536;2023-07-13T11:03:46;5.07;;;1.20;;
22236;SDS011;11287;48.122;11.536;2023-07-13T11:18:40;2.67;;;1.60;;
22236;SDS011;11287;48.122;11.536;2023-07-13T11:21:20;3.88;;;1.70;;
22236;SDS011;11287;48.122;11.536;2023-07-13T11:23:54;3.25;;;1.80;;
22236;SDS011;11287;48.122;11.536;2023-07-13T11:31:57;2.53;;;1.30;;
22236;SDS011;11287;48.122;11.536;2023-07-13T11:34:27;3.78;;;1.20;;
22236;SDS011;11287;48.122;11.536;2023-07-13T11:36:55;3.25;;;1.52;;
22236;SDS011;11287;48.122;11.536;2023-07-13T11:39:23;2.58;;;1.30;;
22236;SDS011;11287;48.122;11.536;2023-07-13T11:41:53;2.10;;;1.30;;
22236;SDS011;11287;48.122;11.536;2023-07-13T11:44:22;5.43;;;3.63;;
22236;SDS011;11287;48.122;11.536;2023-07-13T11:46:50;2.03;;;1.30;;
22236;SDS011;11287;48.122;11.536;2023-07-13T11:49:21;25.80;;;18.65;;
22236;SDS011;11287;48.122;11.536;2023-07-13T11:51:48;3.70;;;1.30;;
22236;SDS011;11287;48.122;11.536;2023-07-13T11:57:03;2.28;;;1.50;;
22236;SDS011;11287;48.122;11.536;2023-07-13T11:59:51;3.15;;;1.58;;
22236;SDS011;11287;48.122;11.536;2023-07-13T12:02:21;1.92;;;1.55;;
22236;SDS011;11287;48.122;11.536;2023-07-13T12:04:54;3.97;;;1.30;;
22236;SDS011;11287;48.122;11.536;2023-07-13T12:07:20;3.30;;;1.25;;
22236;SDS011;11287;48.122;11.536;2023-07-13T12:09:45;2.53;;;1.53;;
22236;SDS011;11287;48.122;11.536;2023-07-13T12:12:17;2.35;;;1.20;;
22236;SDS011;11287;48.122;11.536;2023-07-13T12:14:43;3.80;;;1.55;;
22236;SDS011;11287;48.122;11.536;2023-07-13T12:17:22;2.13;;;1.30;;
22236;SDS011;11287;48.122;11.536;2023-07-13T12:19:48;3.42;;;1.98;;
22236;SDS011;11287;48.122;11.536;2023-07-13T12:22:18;5.03;;;1.77;;
22236;SDS011;11287;48.122;11.536;2023-07-13T12:24:45;2.38;;;1.50;;
22236;SDS011;11287;48.122;11.536;2023-07-13T12:27:24;2.92;;;1.33;;
22236;SDS011;11287;48.122;11.536;2023-07-13T12:30:05;3.47;;;1.40;;
22236;SDS011;11287;48.122;11.536;2023-07-13T12:33:00;4.80;;;1.30;;
22236;SDS011;11287;48.122;11.536;2023-07-13T12:35:30;2.78;;;1.50;;
22236;SDS011;11287;48.122;11.536;2023-07-13T12:37:56;3.28;;;1.38;;
22236;SDS011;11287;48.122;11.536;2023-07-13T12:40:25;3.33;;;1.45;;
22236;SDS011;11287;48.122;11.536;2023-07-13T12:42:52;5.32;;;1.60;;
22236;SDS011;11287;48.122;11.536;2023-07-13T12:45:20;3.95;;;1.40;;
22236;SDS011;11287;48.122;11.536;2023-07-13T12:47:53;5.87;;;5.00;;
22236;SDS011;11287;48.122;11.536;2023-07-13T12:50:27;4.88;;;1.77;;
22236;SDS011;11287;48.122;11.536;2023-07-13T12:52:57;9.18;;;1.77;;
22236;SDS011;11287;48.122;11.536;2023-07-13T12:55:28;2.97;;;1.33;;
22236;SDS011;11287;48.122;11.536;2023-07-13T12:57:58;2.00;;;1.42;;
22236;SDS011;11287;48.122;11.536;2023-07-13T13:02:58;2.45;;;1.60;;
22236;SDS011;11287;48.122;11.536;2023-07-13T13:05:28;1.92;;;1.40;;
22236;SDS011;11287;48.122;11.536;2023-07-13T13:07:55;4.15;;;1.33;;
22236;SDS011;11287;48.122;11.536;2023-07-13T13:10:20;2.88;;;1.67;;
22236;SDS011;11287;48.122;11.536;2023-07-13T13:12:46;3.58;;;1.38;;
22236;SDS011;11287;48.122;11.536;2023-07-13T13:15:11;1.67;;;1.20;;
22236;SDS011;11287;48.122;11.536;2023-07-13T13:17:37;4.03;;;1.83;;
22236;SDS011;11287;48.122;11.536;2023-07-13T13:20:19;2.38;;;1.35;;
22236;SDS011;11287;48.122;11.536;2023-07-13T13:22:45;3.17;;;1.55;;
22236;SDS011;11287;48.122;11.536;2023-07-13T13:25:14;2.22;;;1.20;;
22236;SDS011;11287;48.122;11.536;2023-07-13T13:27:42;5.07;;;1.30;;
22236;SDS011;11287;48.122;11.536;2023-07-13T13:30:11;2.50;;;1.27;;
22236;SDS011;11287;48.122;11.536;2023-07-13T13:32:38;1.92;;;1.33;;
22236;SDS011;11287;48.122;11.536;2023-07-13T13:35:13;3.80;;;1.30;;
22236;SDS011;11287;48.122;11.536;2023-07-13T13:37:39;2.35;;;1.38;;
22236;SDS011;11287;48.122;11.536;2023-07-13T13:40:12;4.38;;;1.45;;
22236;SDS011;11287;48.122;11.536;2023-07-13T13:42:42;4.07;;;1.23;;
22236;SDS011;11287;48.122;11.536;2023-07-13T13:45:11;1.42;;;1.20;;
22236;SDS011;11287;48.122;11.536;2023-07-13T13:50:11;2.53;;;1.40;;
22236;SDS011;11287;48.122;11.536;2023-07-13T13:52:40;4.68;;;1.40;;
22236;SDS011;11287;48.122;11.536;2023-07-13T13:55:13;4.57;;;1.58;;
22236;SDS011;11287;48.122;11.536;2023-07-13T13:57:39;2.78;;;1.05;;
22236;SDS011;11287;48.122;11.536;2023-07-13T14:00:05;4.30;;;1.45;;
22236;SDS011;11287;48.122;11.536;2023-07-13T14:02:30;3.17;;;1.50;;
22236;SDS011;11287;48.122;11.536;2023-07-13T14:04:58;1.80;;;1.30;;
22236;SDS011;11287;48.122;11.536;2023-07-13T14:07:24;3.80;;;1.40;;
22236;SDS011;11287;48.122;11.536;2023-07-13T14:09:50;3.08;;;1.40;;
22236;SDS011;11287;48.122;11.536;2023-07-13T14:12:17;1.92;;;1.38;;
22236;SDS011;11287;48.122;11.536;2023-07-13T14:14:43;2.30;;;1.30;;
22236;SDS011;11287;48.122;11.536;2023-07-13T14:17:16;5.13;;;1.45;;
22236;SDS011;11287;48.122;11.536;2023-07-13T14:19:46;3.05;;;1.45;;
22236;SDS011;11287;48.122;11.536;2023-07-13T14:22:12;4.82;;;1.40;;
22236;SDS011;11287;48.122;11.536;2023-07-13T14:24:37;2.60;;;1.20;;
22236;SDS011;11287;48.122;11.536;2023-07-13T14:27:02;1.63;;;1.20;;
22236;SDS011;11287;48.122;11.536;2023-07-13T14:29:28;2.78;;;1.70;;
22236;SDS011;11287;48.122;11.536;2023-07-13T14:31:53;2.17;;;1.27;;
22236;SDS011;11287;48.122;11.536;2023-07-13T14:34:19;1.80;;;1.27;;
22236;SDS011;11287;48.122;11.536;2023-07-13T14:36:46;2.42;;;1.52;;
22236;SDS011;11287;48.122;11.536;2023-07-13T14:39:15;5.80;;;1.15;;
22236;SDS011;11287;48.122;11.536;2023-07-13T14:41:45;2.08;;;1.23;;
22236;SDS011;11287;48.122;11.536;2023-07-13T14:44:14;3.80;;;1.40;;
22236;SDS011;11287;48.122;11.536;2023-07-13T14:46:40;4.68;;;1.63;;
22236;SDS011;11287;48.122;11.536;2023-07-13T14:49:10;3.15;;;1.40;;
22236;SDS011;11287;48.122;11.536;2023-07-13T14:51:41;1.83;;;1.30;;
22236;SDS011;11287;48.122;11.536;2023-07-13T14:54:07;3.78;;;1.25;;
22236;SDS011;11287;48.122;11.536;2023-07-13T14:56:33;2.95;;;1.40;;
22236;SDS011;11287;48.122;11.536;2023-07-13T14:58:59;3.10;;;1.15;;
22236;SDS011;11287;48.122;11.536;2023-07-13T15:01:24;2.63;;;1.35;;
22236;SDS011;11287;48.122;11.536;2023-07-13T15:03:51;2.58;;;1.55;;
22236;SDS011;11287;48.122;11.536;2023-07-13T15:06:17;1.85;;;1.40;;
22236;SDS011;11287;48.122;11.536;2023-07-13T15:08:44;3.67;;;1.40;;